createdAt,value
2018-11-21T00:00:34.247Z,99.90
2018-11-21T00:03:02.555Z,99.90
2018-11-21T00:05:30.904Z,99.90
2018-11-21T00:07:59.553Z,99.90
2018-11-21T00:10:28.197Z,99.90
2018-11-21T00:12:57.447Z,99.90
2018-11-21T00:15:25.779Z,99.90
2018-11-21T00:17:54.137Z,99.90
2018-11-21T00:20:22.471Z,99.90
2018-11-21T00:22:50.805Z,99.90
2018-11-21T00:25:20.570Z,99.90
2018-11-21T00:27:48.937Z,99.50
2018-11-21T00:30:17.260Z,99.20
2018-11-21T00:32:45.572Z,99.90
2018-11-21T00:35:13.936Z,99.90
2018-11-21T00:37:42.496Z,99.90
2018-11-21T00:40:12.453Z,99.90
2018-11-21T00:42:46.758Z,99.90
2018-11-21T00:45:10.286Z,99.90
2018-11-21T00:47:38.570Z,99.90
2018-11-21T00:50:09.150Z,99.90
2018-11-21T00:52:37.664Z,99.90
2018-11-21T00:55:06.867Z,99.90
2018-11-21T00:57:37.515Z,99.90
2018-11-21T01:00:08.326Z,99.90
2018-11-21T01:02:36.708Z,99.70
2018-11-21T01:05:06.242Z,99.70
2018-11-21T01:07:34.554Z,99.80
2018-11-21T01:10:02.880Z,99.80
2018-11-21T01:12:32.181Z,99.80
2018-11-21T01:15:00.769Z,99.60
2018-11-21T01:17:29.098Z,99.60
2018-11-21T01:19:57.414Z,99.50
2018-11-21T01:22:26.008Z,99.50
2018-11-21T01:24:54.287Z,99.40
2018-11-21T01:27:23.204Z,99.40
2018-11-21T01:29:51.501Z,99.50
2018-11-21T01:32:19.833Z,99.90
2018-11-21T01:34:48.149Z,99.70
2018-11-21T01:37:16.463Z,99.90
2018-11-21T01:39:44.793Z,99.90
2018-11-21T01:42:15.984Z,99.70
2018-11-21T01:44:44.266Z,99.90
2018-11-21T01:47:12.587Z,99.30
2018-11-21T01:49:40.924Z,99.00
2018-11-21T01:52:09.230Z,99.60
2018-11-21T01:54:37.583Z,99.80
2018-11-21T01:57:06.056Z,99.70
2018-11-21T01:59:34.649Z,99.70
2018-11-21T02:02:02.979Z,99.70
2018-11-21T02:04:31.287Z,99.70
2018-11-21T02:06:59.644Z,99.70
2018-11-21T02:09:27.943Z,99.60
2018-11-21T02:11:56.300Z,99.90
2018-11-21T02:14:27.062Z,99.90
2018-11-21T02:16:55.370Z,99.90
2018-11-21T02:19:23.710Z,99.90
2018-11-21T02:21:52.002Z,99.90
2018-11-21T02:24:20.303Z,99.90
2018-11-21T02:26:49.514Z,99.60
2018-11-21T02:29:21.147Z,99.50
2018-11-21T02:31:49.466Z,99.80
2018-11-21T02:34:17.792Z,99.70
2018-11-21T02:36:46.086Z,99.60
2018-11-21T02:39:14.382Z,99.20
2018-11-21T02:41:42.714Z,99.50
2018-11-21T02:44:11.030Z,99.40
2018-11-21T02:46:39.678Z,99.20
2018-11-21T02:49:08.015Z,99.10
2018-11-21T02:51:36.302Z,99.20
2018-11-21T02:54:04.686Z,99.10
2018-11-21T02:57:09.843Z,99.10
2018-11-21T02:59:38.141Z,99.10
2018-11-21T03:02:06.446Z,99.20
2018-11-21T03:04:35.603Z,99.20
2018-11-21T03:07:03.921Z,99.20
2018-11-21T03:09:32.553Z,99.20
2018-11-21T03:12:00.903Z,99.10
2018-11-21T03:14:29.237Z,99.20
2018-11-21T03:16:57.551Z,99.10
2018-11-21T03:19:25.959Z,99.20
2018-11-21T03:21:54.310Z,99.10
2018-11-21T03:24:22.611Z,99.10
2018-11-21T03:26:51.964Z,99.00
2018-11-21T03:29:20.732Z,98.90
2018-11-21T03:31:49.053Z,99.00
2018-11-21T03:34:17.420Z,98.90
2018-11-21T03:36:49.730Z,98.90
2018-11-21T03:39:19.438Z,99.00
2018-11-21T03:41:47.946Z,99.00
2018-11-21T03:44:17.155Z,99.00
2018-11-21T03:46:47.054Z,99.20
2018-11-21T03:49:16.703Z,99.20
2018-11-21T03:51:45.144Z,99.10
2018-11-21T03:54:13.435Z,99.20
2018-11-21T03:56:42.011Z,99.20
2018-11-21T03:59:10.649Z,99.10
2018-11-21T04:01:39.284Z,99.20
2018-11-21T04:04:09.202Z,98.90
2018-11-21T04:06:37.552Z,99.20
2018-11-21T04:09:10.605Z,99.20
2018-11-21T04:11:38.999Z,99.10
2018-11-21T04:14:07.799Z,99.10
2018-11-21T04:16:36.178Z,99.30
2018-11-21T04:19:04.659Z,99.10
2018-11-21T04:21:32.981Z,99.20
2018-11-21T04:24:01.332Z,99.90
2018-11-21T04:26:29.640Z,99.90
2018-11-21T04:28:59.072Z,99.90
2018-11-21T04:31:27.467Z,99.90
2018-11-21T04:33:55.767Z,99.90
2018-11-21T04:36:25.901Z,99.90
2018-11-21T04:38:54.572Z,99.90
2018-11-21T04:41:22.872Z,99.90
2018-11-21T04:43:51.184Z,99.90
2018-11-21T04:46:19.488Z,99.90
2018-11-21T04:48:47.807Z,99.90
2018-11-21T04:51:16.091Z,99.90
2018-11-21T04:53:44.425Z,99.90
2018-11-21T04:56:12.772Z,99.90
2018-11-21T04:58:41.034Z,99.90
2018-11-21T05:01:12.168Z,99.90
2018-11-21T05:03:40.513Z,99.90
2018-11-21T05:06:09.132Z,99.90
2018-11-21T05:08:37.515Z,99.90
2018-11-21T05:11:06.388Z,99.90
2018-11-21T05:13:34.189Z,99.90
2018-11-21T05:16:02.845Z,99.90
2018-11-21T05:18:31.192Z,99.90
2018-11-21T05:20:59.542Z,99.90
2018-11-21T05:23:27.849Z,99.90
2018-11-21T05:25:56.215Z,99.90
2018-11-21T05:28:24.601Z,99.90
2018-11-21T05:30:52.933Z,99.90
2018-11-21T05:33:21.268Z,99.90
2018-11-21T05:35:49.568Z,99.90
2018-11-21T05:38:17.868Z,99.90
2018-11-21T05:40:46.173Z,99.90
2018-11-21T05:43:15.209Z,99.90
2018-11-21T05:45:43.465Z,99.90
2018-11-21T05:48:11.795Z,99.90
2018-11-21T05:50:40.235Z,99.90
2018-11-21T05:53:09.277Z,99.90
2018-11-21T05:55:39.820Z,99.90
2018-11-21T05:58:08.137Z,99.90
2018-11-21T06:00:36.428Z,99.90
2018-11-21T06:03:04.859Z,99.90
2018-11-21T06:05:33.448Z,99.90
2018-11-21T06:08:01.832Z,99.90
2018-11-21T06:10:30.438Z,99.90
2018-11-21T06:12:59.077Z,99.90
2018-11-21T06:15:27.392Z,99.90
2018-11-21T06:17:56.882Z,99.90
2018-11-21T06:20:25.218Z,99.90
2018-11-21T06:22:54.075Z,99.90
2018-11-21T06:25:22.450Z,99.90
2018-11-21T06:27:51.689Z,99.90
2018-11-21T06:30:20.286Z,99.90
2018-11-21T06:32:48.920Z,99.90
2018-11-21T06:35:17.274Z,99.90
2018-11-21T06:37:45.568Z,99.90
2018-11-21T06:40:15.377Z,99.90
2018-11-21T06:42:53.414Z,99.90
2018-11-21T06:45:22.794Z,99.90
2018-11-21T06:47:51.096Z,99.90
2018-11-21T06:50:19.695Z,99.90
2018-11-21T06:52:48.100Z,99.90
2018-11-21T06:55:17.237Z,99.90
2018-11-21T06:57:45.741Z,99.90
2018-11-21T07:00:14.089Z,99.90
2018-11-21T07:02:43.499Z,99.90
2018-11-21T07:05:12.629Z,99.90
2018-11-21T07:07:41.205Z,99.90
2018-11-21T07:10:12.419Z,99.90
2018-11-21T07:12:42.597Z,99.90
2018-11-21T07:15:10.897Z,99.90
2018-11-21T07:17:39.509Z,99.90
2018-11-21T07:20:10.291Z,99.90
2018-11-21T07:22:38.794Z,99.90
2018-11-21T07:25:16.073Z,99.90
2018-11-21T07:27:44.439Z,99.90
2018-11-21T07:30:14.147Z,99.90
2018-11-21T07:32:42.488Z,99.90
2018-11-21T07:35:14.638Z,99.90
2018-11-21T07:37:40.524Z,99.90
2018-11-21T07:40:10.519Z,99.90
2018-11-21T07:42:38.866Z,99.90
2018-11-21T07:45:11.986Z,99.90
2018-11-21T07:47:41.120Z,99.90
2018-11-21T07:50:12.286Z,99.90
2018-11-21T07:52:41.610Z,99.90
2018-11-21T07:55:10.664Z,99.90
2018-11-21T07:57:46.438Z,99.90
2018-11-21T08:00:44.578Z,99.90
2018-11-21T08:03:13.365Z,99.90
2018-11-21T08:05:44.436Z,99.90
2018-11-21T08:08:43.023Z,99.90
2018-11-21T08:11:38.173Z,99.90
2018-11-21T08:14:31.487Z,99.90
2018-11-21T08:17:21.701Z,99.90
2018-11-21T08:20:09.611Z,99.90
2018-11-21T08:22:54.773Z,99.90
2018-11-21T08:25:41.041Z,99.90
2018-11-21T08:28:37.839Z,99.90
2018-11-21T08:31:07.228Z,99.90
2018-11-21T08:33:35.543Z,99.90
2018-11-21T08:36:03.972Z,99.90
2018-11-21T08:38:32.309Z,99.90
2018-11-21T08:41:01.420Z,99.90
2018-11-21T08:43:29.737Z,99.90
2018-11-21T08:45:59.139Z,99.90
2018-11-21T08:48:27.849Z,99.90
2018-11-21T08:50:56.187Z,99.90
2018-11-21T08:53:25.083Z,99.90
2018-11-21T08:55:54.099Z,99.90
2018-11-21T08:58:22.448Z,99.90
2018-11-21T09:00:50.872Z,99.90
2018-11-21T09:03:19.246Z,99.90
2018-11-21T09:05:47.568Z,99.90
2018-11-21T09:08:15.870Z,99.90
2018-11-21T09:10:45.723Z,99.90
2018-11-21T09:13:14.437Z,99.90
2018-11-21T09:15:43.088Z,99.90
2018-11-21T09:18:13.320Z,99.90
2018-11-21T09:20:41.702Z,99.90
2018-11-21T09:23:11.121Z,99.90
2018-11-21T09:25:39.748Z,99.90
2018-11-21T09:28:08.113Z,99.90
2018-11-21T09:30:36.435Z,99.90
2018-11-21T09:33:07.042Z,99.90
2018-11-21T09:35:35.921Z,99.90
2018-11-21T09:38:04.264Z,99.90
2018-11-21T09:40:35.891Z,99.90
2018-11-21T09:43:04.560Z,99.90
2018-11-21T09:45:44.025Z,99.90
2018-11-21T09:48:13.115Z,99.90
2018-11-21T09:50:40.965Z,99.90
2018-11-21T09:53:09.663Z,99.90
2018-11-21T09:55:40.427Z,99.90
2018-11-21T09:58:06.630Z,99.90
2018-11-21T10:01:11.866Z,99.90
2018-11-21T10:03:40.697Z,99.80
2018-11-21T10:06:24.699Z,99.90
2018-11-21T10:09:20.878Z,99.10
2018-11-21T10:11:49.256Z,99.40
2018-11-21T10:14:17.603Z,99.10
2018-11-21T10:16:45.948Z,99.40
2018-11-21T10:19:15.091Z,99.60
2018-11-21T10:21:43.382Z,99.60
2018-11-21T10:24:11.736Z,99.30
2018-11-21T10:26:40.046Z,99.50
2018-11-21T10:29:08.368Z,99.40
2018-11-21T10:31:36.752Z,99.00
2018-11-21T10:34:08.193Z,99.10
2018-11-21T10:36:36.540Z,98.80
2018-11-21T10:39:07.669Z,98.50
2018-11-21T10:41:35.994Z,98.60
2018-11-21T10:44:04.295Z,98.50
2018-11-21T10:46:32.933Z,98.50
2018-11-21T10:49:01.949Z,97.60
2018-11-21T10:51:30.271Z,98.10
2018-11-21T10:53:58.615Z,97.80
2018-11-21T10:56:29.603Z,97.70
2018-11-21T10:59:02.149Z,97.70
2018-11-21T11:02:02.094Z,97.70
2018-11-21T11:04:37.845Z,97.80
2018-11-21T11:07:24.204Z,98.00
2018-11-21T11:10:12.762Z,98.10
2018-11-21T11:13:06.225Z,97.80
2018-11-21T11:15:51.915Z,97.80
2018-11-21T11:18:37.786Z,97.40
2018-11-21T11:21:28.369Z,97.40
2018-11-21T11:24:14.541Z,97.20
2018-11-21T11:27:00.616Z,97.20
2018-11-21T11:29:46.748Z,97.30
2018-11-21T11:32:25.739Z,97.40
2018-11-21T11:35:28.827Z,96.90
2018-11-21T11:38:28.662Z,97.00
2018-11-21T11:41:27.976Z,96.70
2018-11-21T11:44:21.453Z,97.40
2018-11-21T11:47:16.006Z,96.60
2018-11-21T11:50:06.483Z,96.40
2018-11-21T11:52:52.588Z,96.40
2018-11-21T11:55:58.196Z,96.30
2018-11-21T11:58:46.713Z,96.50
2018-11-21T12:01:42.290Z,96.70
2018-11-21T12:04:21.670Z,96.10
2018-11-21T12:07:02.435Z,95.40
2018-11-21T12:09:49.556Z,95.80
2018-11-21T12:12:40.069Z,96.10
2018-11-21T12:15:29.662Z,96.50
2018-11-21T12:18:17.833Z,96.60
2018-11-21T12:21:05.859Z,96.60
2018-11-21T12:24:00.545Z,96.10
2018-11-21T12:27:00.072Z,96.00
2018-11-21T12:29:46.677Z,95.80
2018-11-21T12:32:27.971Z,95.30
2018-11-21T12:35:16.497Z,95.80
2018-11-21T12:38:12.628Z,95.70
2018-11-21T12:40:54.126Z,95.90
2018-11-21T12:43:30.928Z,95.80
2018-11-21T12:46:19.939Z,95.60
2018-11-21T12:49:06.284Z,95.50
2018-11-21T12:51:52.450Z,95.20
2018-11-21T12:54:42.866Z,95.50
2018-11-21T12:57:29.571Z,95.60
2018-11-21T13:00:26.032Z,95.40
2018-11-21T13:03:23.336Z,95.30
2018-11-21T13:06:19.777Z,95.40
2018-11-21T13:08:55.491Z,95.80
2018-11-21T13:11:58.135Z,95.70
2018-11-21T13:14:44.588Z,95.50
2018-11-21T13:17:41.055Z,95.60
2018-11-21T13:20:30.056Z,96.00
2018-11-21T13:23:07.218Z,95.90
2018-11-21T13:26:00.456Z,96.20
2018-11-21T13:29:03.901Z,96.20
2018-11-21T13:31:58.012Z,95.80
2018-11-21T13:34:45.680Z,96.30
2018-11-21T13:37:35.701Z,96.20
2018-11-21T13:40:27.427Z,95.60
2018-11-21T13:43:30.253Z,95.60
2018-11-21T13:46:17.752Z,95.90
2018-11-21T13:49:04.150Z,95.90
2018-11-21T13:51:50.824Z,96.20
2018-11-21T13:54:41.418Z,95.90
2018-11-21T13:57:13.599Z,95.80
2018-11-21T13:59:49.225Z,96.30
2018-11-21T14:02:17.554Z,96.40
2018-11-21T14:04:48.160Z,96.30
2018-11-21T14:07:16.880Z,96.00
2018-11-21T14:09:45.252Z,96.40
2018-11-21T14:12:13.582Z,96.10
2018-11-21T14:14:41.941Z,96.70
2018-11-21T14:17:10.238Z,96.40
2018-11-21T14:19:38.525Z,96.60
2018-11-21T14:22:06.867Z,96.40
2018-11-21T14:24:35.987Z,96.80
2018-11-21T14:27:04.330Z,96.60
2018-11-21T14:29:32.664Z,96.60
2018-11-21T14:32:00.963Z,97.00
2018-11-21T14:34:30.613Z,95.40
2018-11-21T14:36:58.931Z,96.20
2018-11-21T14:39:27.227Z,95.80
2018-11-21T14:41:55.572Z,96.00
2018-11-21T14:44:23.885Z,96.10
2018-11-21T14:46:53.397Z,96.30
2018-11-21T14:49:21.791Z,96.40
2018-11-21T14:51:50.414Z,96.60
2018-11-21T14:54:26.364Z,96.70
2018-11-21T14:56:56.606Z,96.80
